Latest Coastal Weather Observations for Maningrida Airport

IDD60701

Issued at 3:51 am CST Saturday 22 June 2024 (issued every 10 minutes, with the page automatically refreshed every 10 minutes)

About coastal observations | Map of coastal stations | Coastal observations for NT | Marine services | Other Formats
Station Details ID: 014405 Name: MANINGRIDA AIRPORT Lat: -12.06 Lon: 134.23 Height: 28.1 m
Data from the previous 72 hours. | See also: Recent months at Maningrida Airport
Date/Time
CST
Wind Sea
Height
m
Swell Vis
km
Cloud Weather Temp
°C
Press
MSL
hPa
Rain since
9am
mm
Dir  Spd
kts
Gust
kts
Height
m
Period
s
Dir
22/03:30am SSE 8 11 - - - - 10 - - 21.1 1014.5 0.0
22/03:00am SSE 9 11 - - - - 10 - - 21.4 1014.6 0.0
22/02:30am SSE 8 12 - - - - 10 - - 21.8 1014.7 0.0
22/02:00am SSE 9 13 - - - - 10 - - 22.0 1015.0 0.0
22/01:30am SSE 9 11 - - - - 10 - - 22.2 1015.3 0.0
22/01:00am SSE 8 13 - - - - 10 - - 22.5 1015.6 0.0
22/12:30am SSE 8 12 - - - - 10 - - 22.9 1015.6 0.0
22/12:00am SSE 8 11 - - - - 10 - - 23.2 1015.5 0.0
 
Date/Time
CST
Wind Sea
Height
m
Swell Vis
km
Cloud Weather Temp
°C
Press
MSL
hPa
Rain since
9am
mm
Dir  Spd
kts
Gust
kts
Height
m
Period
s
Dir
21/11:30pm SSE 9 13 - - - - 10 - - 23.6 1015.6 0.0
21/11:00pm SSE 10 15 - - - - 10 - - 23.9 1015.5 0.0
21/10:30pm SSE 10 14 - - - - 10 - - 24.3 1015.4 0.0
21/10:00pm SE 11 15 - - - - 10 - - 24.8 1015.4 0.0
21/09:30pm SE 11 16 - - - - 10 - - 25.3 1015.3 0.0
21/09:00pm SE 11 18 - - - - 10 - - 25.8 1015.1 0.0
21/08:30pm SE 9 13 - - - - 10 Partly cloudy - 25.7 1014.7 0.0
21/08:00pm ESE 6 8 - - - - 10 - - 25.5 1014.2 0.0
21/07:30pm SE 4 6 - - - - 10 - - 24.6 1013.8 0.0
21/07:00pm CALM 0 1 - - - - 10 - - 25.4 1013.5 0.0
21/06:30pm ENE 4 5 - - - - 10 Partly cloudy - 26.2 1013.1 0.0
21/06:00pm NE 6 7 - - - - 10 Partly cloudy - 27.2 1012.7 0.0
21/05:30pm ENE 5 8 - - - - 10 - - 28.9 1012.3 0.0
21/05:00pm ESE 8 11 - - - - 10 - - 29.6 1012.0 0.0
21/04:30pm ESE 9 14 - - - - 10 Partly cloudy - 29.1 1011.8 0.0
21/04:00pm ESE 6 8 - - - - - - - 30.0 - 0.0
21/03:30pm ENE 6 8 - - - - 10 Partly cloudy - 29.7 1011.8 0.0
21/03:00pm ESE 7 11 - - - - 10 Partly cloudy - 28.9 1012.0 0.0
21/02:30pm SE 9 12 - - - - 10 Partly cloudy - 29.1 1012.2 0.0
21/02:00pm ESE 8 12 - - - - 10 Partly cloudy - 30.1 1012.5 0.0
21/01:30pm ESE 10 16 - - - - - - - 29.2 1013.1 0.0
21/01:00pm SE 11 16 - - - - 10 Partly cloudy - 28.4 1013.4 0.0
21/12:30pm SE 10 14 - - - - 10 Partly cloudy - 28.1 1013.8 0.0
21/12:00pm ESE 12 17 - - - - - Mostly clear - 28.4 1014.3 0.0
21/11:30am SE 11 16 - - - - - - - 27.4 1014.7 0.0
21/11:00am SSE 11 16 - - - - 10 Partly cloudy - 27.0 1015.2 0.0
21/10:30am SE 11 17 - - - - - - - 26.1 1015.6 0.0
21/10:00am SE 11 18 - - - - 10 Partly cloudy - 25.0 1015.8 0.0
21/09:30am SE 11 17 - - - - 10 - - 24.3 1016.0 0.0
21/09:00am SSE 9 14 - - - - 10 - - 23.3 1015.9 0.0
21/08:30am SE 9 14 - - - - 10 - - 22.4 1015.6 0.0
21/08:00am SSE 6 8 - - - - 10 - - 21.6 1015.2 0.0
21/07:30am SSE 7 11 - - - - 10 - - 20.6 1014.8 0.0
21/07:00am S 6 8 - - - - 10 - - 19.9 1014.6 0.0
21/06:30am S 6 8 - - - - 10 - - 20.1 1014.4 0.0
21/06:00am SSE 6 8 - - - - 10 - - 20.2 1013.9 0.0
21/05:30am S 6 8 - - - - 10 - - 20.2 1013.6 0.0
21/05:00am S 5 7 - - - - 10 - - 20.4 1013.5 0.0
21/04:30am SSE 5 6 - - - - 10 - - 20.5 1013.1 0.0
21/04:00am SSE 5 8 - - - - 10 - - 20.8 1012.9 0.0
21/03:30am SSE 5 7 - - - - 10 - - 21.1 1012.8 0.0
21/03:00am SSE 6 8 - - - - 10 - - 21.6 1012.8 0.0
21/02:30am SSE 6 8 - - - - 10 - - 21.5 1012.8 0.0
21/02:00am SE 7 9 - - - - 10 - - 21.9 1013.1 0.0
21/01:30am SE 7 11 - - - - 10 - - 22.3 1013.4 0.0
21/01:00am SE 7 10 - - - - 10 - - 22.6 1013.6 0.0
21/12:30am ESE 8 11 - - - - 10 - - 23.0 1013.9 0.0
21/12:00am ESE 7 9 - - - - 10 - - 23.4 1013.9 0.0
 
Date/Time
CST
Wind Sea
Height
m
Swell Vis
km
Cloud Weather Temp
°C
Press
MSL
hPa
Rain since
9am
mm
Dir  Spd
kts
Gust
kts
Height
m
Period
s
Dir
20/11:30pm ESE 8 11 - - - - 10 - - 23.8 1013.8 0.0
20/11:00pm ESE 9 12 - - - - 10 - - 24.2 1013.9 0.0
20/10:30pm SE 7 10 - - - - 10 - - 24.5 1014.1 0.0
20/10:00pm ESE 7 10 - - - - 10 - - 24.4 1014.0 0.0
20/09:30pm ESE 5 6 - - - - - - - 24.5 1013.7 0.0
20/09:00pm E 5 7 - - - - - Mostly clear - 24.8 1013.4 0.0
20/08:30pm E 4 5 - - - - 10 Partly cloudy - 24.9 1013.1 0.0
20/08:00pm E 5 6 - - - - 10 Partly cloudy - 25.0 1012.7 0.0
20/07:30pm E 4 5 - - - - 10 - - 25.3 1012.4 0.0
20/07:00pm E 3 5 - - - - 10 - - 25.6 1012.2 0.0
20/06:30pm ENE 4 6 - - - - 10 - - 26.3 1012.0 0.0
20/06:00pm NE 5 6 - - - - 10 - - 27.4 1011.7 0.0
20/05:30pm E 5 7 - - - - 10 - - 28.5 1011.3 0.0
20/05:00pm E 6 7 - - - - 10 - - 29.2 1010.8 0.0
20/04:30pm NE 7 10 - - - - 10 - - 29.5 1010.9 0.0
20/04:00pm NE 8 11 - - - - 10 - - 29.7 1010.9 0.0
20/03:30pm ENE 8 12 - - - - 10 - - 29.8 1010.8 0.0
20/03:00pm E 8 11 - - - - 10 - - 30.2 1010.9 0.0
20/02:30pm ENE 9 13 - - - - 10 - - 29.6 1011.0 0.0
20/02:00pm E 9 13 - - - - - - - 30.1 - 0.0
20/01:30pm E 7 10 - - - - - - - 30.0 1011.7 0.0
20/01:00pm ESE 9 14 - - - - 10 - - 30.4 1012.2 0.0
20/12:30pm SE 11 17 - - - - 10 - - 29.7 1012.8 0.0
20/12:00pm ESE 11 15 - - - - 10 - - 29.3 1013.4 0.0
20/11:30am ESE 10 13 - - - - 10 - - 28.6 1013.8 0.0
20/11:00am ESE 12 15 - - - - 10 - - 28.1 1014.0 0.0
20/10:30am ESE 9 13 - - - - 10 - - 27.6 1014.0 0.0
20/10:00am SE 11 15 - - - - 10 - - 28.1 1014.0 0.0
20/09:30am ESE 12 17 - - - - 10 - - 26.1 1013.8 0.0
20/09:00am SE 11 15 - - - - 10 - - 25.6 1013.7 0.0
20/08:30am SE 11 15 - - - - 10 - - 24.8 1013.6 0.0
20/08:00am SE 9 12 - - - - 10 - - 23.6 1013.3 0.0
20/07:30am SSE 7 9 - - - - 10 Partly cloudy - 22.0 1013.0 0.0
20/07:00am SSE 6 8 - - - - 10 Cloudy - 21.6 1012.9 0.0
20/06:30am SSE 5 9 - - - - 10 Partly cloudy - 21.6 1012.6 0.0
20/06:00am SSE 7 9 - - - - 10 Mostly cloudy - 21.8 1012.4 0.0
20/05:30am S 6 8 - - - - 10 Partly cloudy - 21.8 1012.2 0.0
20/05:00am SSE 5 7 - - - - 10 Cloudy - 22.2 1012.2 0.0
20/04:30am SSE 5 9 - - - - 10 Cloudy - 22.4 1012.3 0.0
20/04:00am S 5 8 - - - - 10 Cloudy - 22.6 1012.2 0.0
20/03:30am S 5 9 - - - - 10 Cloudy - 22.8 1012.3 0.0
20/03:00am SSE 5 9 - - - - 10 Cloudy - 23.2 1012.7 0.0
20/02:30am SSE 6 9 - - - - 10 Cloudy - 23.4 1012.7 0.0
20/02:00am SSE 6 9 - - - - 10 Cloudy - 23.4 1012.6 0.0
20/01:30am SSE 7 11 - - - - 10 Cloudy - 23.4 1012.7 0.0
20/01:00am SSE 7 9 - - - - 10 Partly cloudy - 23.2 1012.8 0.0
20/12:30am SE 7 11 - - - - 10 - - 23.3 1012.6 0.0
20/12:00am SE 9 14 - - - - 10 Partly cloudy - 23.5 1012.6 0.0
 
Date/Time
CST
Wind Sea
Height
m
Swell Vis
km
Cloud Weather Temp
°C
Press
MSL
hPa
Rain since
9am
mm
Dir  Spd
kts
Gust
kts
Height
m
Period
s
Dir
19/11:30pm SE 8 11 - - - - - - - 23.7 1012.9 0.0
19/11:00pm ESE 7 10 - - - - 10 - - 23.8 1012.9 0.0
19/10:30pm ESE 6 8 - - - - 10 Partly cloudy - 24.2 1012.8 0.0
19/10:00pm SE 6 7 - - - - - - - 24.4 - 0.0
19/09:30pm ESE 4 5 - - - - 10 Partly cloudy - 24.5 1012.6 0.0
19/09:00pm ESE 3 5 - - - - 10 Partly cloudy - 24.4 1012.4 0.0
19/08:30pm E 4 5 - - - - - - - 24.6 1012.0 0.0
19/08:00pm E 3 4 - - - - - - - 24.8 - 0.0
19/07:30pm E 3 4 - - - - - - - 25.2 1011.4 0.0
19/07:00pm CALM 0 0 - - - - 10 - - 25.7 1011.0 0.0
19/06:30pm NE 4 7 - - - - 10 Partly cloudy - 26.3 1010.9 0.0
19/06:00pm NE 6 7 - - - - 10 - - 27.2 1010.8 0.0
19/05:30pm N 5 7 - - - - 10 - - 28.2 1010.4 0.0
19/05:00pm ENE 7 10 - - - - 10 Partly cloudy - 28.8 1010.4 0.0
19/04:30pm NE 7 9 - - - - - - - 29.3 1010.3 0.0
19/04:00pm ENE 8 11 - - - - - - - 29.7 - 0.0
19/03:30pm ENE 9 11 - - - - - - - 29.5 1010.4 0.0
19/03:00pm ENE 10 14 - - - - - Mostly clear - 29.4 1010.5 0.0
19/02:30pm ESE 9 15 - - - - - - - 30.5 1010.6 0.0
19/02:00pm E 9 14 - - - - 10 - - 30.7 1011.1 0.0
19/01:30pm SE 9 16 - - - - 10 - - 30.3 1011.6 0.0
19/01:00pm SE 9 17 - - - - 10 - - 30.5 1012.2 0.0
19/12:30pm SE 11 15 - - - - 10 - - 29.6 1012.8 0.0
19/12:00pm ESE 10 15 - - - - 10 - - 29.4 1013.3 0.0
19/11:30am ESE 10 14 - - - - 10 - - 28.2 1013.7 0.0
19/11:00am SSE 9 13 - - - - 10 - - 27.6 1014.3 0.0
19/10:30am SE 9 13 - - - - 10 - - 26.9 1014.6 0.0
19/10:00am SE 7 12 - - - - 10 - - 26.2 1014.9 0.0
19/09:30am SE 8 11 - - - - 10 - - 24.6 1015.3 0.0
19/09:00am SSE 7 10 - - - - 10 - - 23.3 1015.5 0.0
19/08:30am SSE 8 11 - - - - 10 - - 21.9 1015.4 0.0
19/08:00am S 5 10 - - - - 10 - - 19.8 1014.9 0.0
19/07:30am SSW 5 6 - - - - 10 - - 17.8 1014.7 0.0
19/07:00am SSW 3 5 - - - - 9 - - 17.2 1014.4 0.0
19/06:30am S 4 6 - - - - 10 - - 17.5 1013.9 0.0
19/06:00am S 5 6 - - - - 10 - - 17.8 1013.6 0.0
19/05:30am SSW 4 6 - - - - 10 - - 17.5 1013.5 0.0
19/05:00am SSW 4 5 - - - - 10 - - 17.8 1013.3 0.0
19/04:30am SW 5 7 - - - - 10 - - 17.8 1013.0 0.0
19/04:00am S 3 6 - - - - 10 - - 18.6 1012.9 0.0

Other formats

Comma delimited format used in spreadsheet applications
http://www.bom.gov.au/fwo/IDD60701/IDD60701.95142.axf

JavaScript Object Notation format (JSON) in row-major order
http://www.bom.gov.au/fwo/IDD60701/IDD60701.95142.json

Data quality

Most of these data are generated automatically and are frequently updated. Quality checks on data are not normally performed. It is possible for incorrect values to appear. Refer to information at About Latest Weather Observations and please check the disclaimer before using these data.